createdAt,value
2022-08-20T00:00:26.936Z,18.63
2022-08-20T00:02:57.118Z,18.66
2022-08-20T00:05:33.907Z,18.68
2022-08-20T00:08:00.856Z,18.72
2022-08-20T00:10:29.139Z,18.72
2022-08-20T00:12:56.487Z,18.70
2022-08-20T00:15:29.101Z,18.69
2022-08-20T00:17:57.011Z,18.71
2022-08-20T00:20:27.234Z,18.70
2022-08-20T00:22:54.089Z,18.65
2022-08-20T00:25:20.993Z,18.62
2022-08-20T00:27:47.495Z,18.60
2022-08-20T00:30:14.650Z,18.57
2022-08-20T00:32:46.321Z,18.57
2022-08-20T00:35:15.946Z,18.55
2022-08-20T00:37:42.697Z,18.54
2022-08-20T00:40:22.251Z,18.53
2022-08-20T00:42:53.777Z,18.52
2022-08-20T00:45:21.387Z,18.51
2022-08-20T00:47:51.294Z,18.49
2022-08-20T00:50:24.540Z,18.47
2022-08-20T00:52:52.980Z,18.47
2022-08-20T00:55:22.655Z,18.47
2022-08-20T00:58:01.033Z,18.49
2022-08-20T01:00:37.645Z,18.51
2022-08-20T01:03:09.595Z,18.54
2022-08-20T01:05:37.726Z,18.56
2022-08-20T01:08:04.614Z,18.55
2022-08-20T01:10:35.441Z,18.59
2022-08-20T01:13:09.932Z,18.62
2022-08-20T01:15:43.341Z,18.62
2022-08-20T01:18:13.760Z,18.54
2022-08-20T01:20:48.648Z,18.43
2022-08-20T01:23:30.538Z,18.43
2022-08-20T01:26:23.523Z,18.40
2022-08-20T01:28:52.780Z,18.40
2022-08-20T01:31:22.495Z,18.43
2022-08-20T01:33:50.776Z,18.43
2022-08-20T01:36:21.808Z,18.44
2022-08-20T01:38:54.188Z,18.42
2022-08-20T01:41:48.851Z,18.46
2022-08-20T01:44:18.489Z,18.46
2022-08-20T01:46:47.991Z,18.48
2022-08-20T01:49:23.748Z,18.49
2022-08-20T01:51:55.506Z,18.50
2022-08-20T01:54:22.961Z,18.51
2022-08-20T01:57:00.424Z,18.48
2022-08-20T01:59:27.476Z,18.46
2022-08-20T02:01:54.334Z,18.42
2022-08-20T02:04:21.292Z,18.36
2022-08-20T02:06:56.178Z,18.26
2022-08-20T02:09:25.873Z,18.15
2022-08-20T02:11:53.251Z,18.09
2022-08-20T02:14:20.214Z,18.07
2022-08-20T02:16:54.793Z,18.06
2022-08-20T02:19:40.244Z,18.09
2022-08-20T02:22:37.057Z,18.11
2022-08-20T02:25:06.735Z,18.12
2022-08-20T02:27:33.328Z,18.10
2022-08-20T02:29:59.771Z,18.08
2022-08-20T02:32:34.285Z,18.04
2022-08-20T02:35:04.076Z,18.02
2022-08-20T02:37:31.612Z,18.00
2022-08-20T02:39:58.676Z,18.01
2022-08-20T02:42:26.356Z,18.01
2022-08-20T02:44:54.815Z,18.03
2022-08-20T02:47:21.251Z,18.02
2022-08-20T02:49:47.732Z,18.00
2022-08-20T02:52:14.268Z,18.00
2022-08-20T02:54:40.687Z,17.96
2022-08-20T02:57:12.893Z,17.92
2022-08-20T02:59:39.285Z,17.92
2022-08-20T03:02:05.852Z,17.90
2022-08-20T03:04:32.251Z,17.90
2022-08-20T03:06:59.100Z,17.88
2022-08-20T03:09:25.907Z,17.87
2022-08-20T03:11:52.904Z,17.88
2022-08-20T03:14:19.563Z,17.82
2022-08-20T03:16:45.982Z,17.79
2022-08-20T03:19:13.800Z,17.81
2022-08-20T03:21:40.470Z,17.81
2022-08-20T03:24:07.015Z,17.83
2022-08-20T03:26:33.398Z,17.85
2022-08-20T03:28:59.850Z,17.88
2022-08-20T03:31:26.287Z,17.89
2022-08-20T03:33:53.858Z,17.89
2022-08-20T03:36:22.253Z,17.90
2022-08-20T03:38:56.769Z,17.88
2022-08-20T03:41:24.360Z,17.88
2022-08-20T03:43:50.996Z,17.86
2022-08-20T03:46:22.106Z,17.85
2022-08-20T03:48:59.746Z,17.80
2022-08-20T03:51:29.140Z,17.80
2022-08-20T03:53:55.605Z,17.77
2022-08-20T03:56:21.996Z,17.76
2022-08-20T03:58:48.472Z,17.71
2022-08-20T04:01:45.697Z,17.62
2022-08-20T04:04:01.314Z,17.54
2022-08-20T04:06:29.143Z,17.49
2022-08-20T04:08:56.699Z,17.43
2022-08-20T04:11:24.106Z,17.38
2022-08-20T04:13:50.519Z,17.31
2022-08-20T04:16:18.225Z,17.21
2022-08-20T04:19:01.755Z,17.09
2022-08-20T04:21:33.369Z,17.06
2022-08-20T04:24:02.205Z,17.03
2022-08-20T04:26:28.746Z,17.02
2022-08-20T04:28:55.648Z,17.00
2022-08-20T04:31:25.381Z,16.96
2022-08-20T04:33:52.290Z,16.91
2022-08-20T04:36:18.732Z,16.90
2022-08-20T04:38:48.123Z,16.87
2022-08-20T04:41:23.596Z,16.87
2022-08-20T04:43:53.172Z,16.88
2022-08-20T04:46:21.294Z,16.91
2022-08-20T04:48:48.642Z,16.96
2022-08-20T04:51:16.681Z,17.01
2022-08-20T04:53:43.123Z,17.10
2022-08-20T04:56:09.758Z,17.15
2022-08-20T04:58:38.227Z,17.19
2022-08-20T05:01:07.952Z,17.24
2022-08-20T05:03:35.507Z,17.27
2022-08-20T05:06:01.970Z,17.30
2022-08-20T05:08:29.660Z,17.34
2022-08-20T05:11:30.169Z,17.35
2022-08-20T05:13:44.142Z,17.32
2022-08-20T05:16:10.571Z,17.29
2022-08-20T05:18:37.011Z,17.27
2022-08-20T05:21:06.006Z,17.25
2022-08-20T05:23:35.000Z,17.17
2022-08-20T05:26:05.322Z,17.11
2022-08-20T05:28:32.809Z,17.11
2022-08-20T05:31:02.335Z,17.09
2022-08-20T05:33:29.937Z,17.02
2022-08-20T05:35:57.670Z,16.95
2022-08-20T05:38:26.974Z,16.88
2022-08-20T05:40:53.477Z,16.85
2022-08-20T05:43:20.788Z,16.79
2022-08-20T05:45:56.385Z,16.77
2022-08-20T05:48:25.221Z,16.76
2022-08-20T05:50:54.393Z,16.82
2022-08-20T05:53:23.274Z,16.84
2022-08-20T05:55:50.089Z,16.87
2022-08-20T05:58:20.963Z,16.90
2022-08-20T06:00:48.884Z,16.94
2022-08-20T06:03:34.315Z,17.15
2022-08-20T06:06:03.593Z,17.40
2022-08-20T06:08:30.445Z,17.53
2022-08-20T06:10:57.387Z,17.76
2022-08-20T06:13:23.865Z,18.00
2022-08-20T06:15:50.286Z,18.16
2022-08-20T06:18:27.793Z,18.28
2022-08-20T06:20:55.362Z,18.34
2022-08-20T06:23:23.177Z,18.41
2022-08-20T06:25:50.382Z,18.38
2022-08-20T06:28:18.638Z,18.39
2022-08-20T06:30:45.152Z,18.46
2022-08-20T06:33:12.165Z,18.56
2022-08-20T06:35:38.511Z,18.67
2022-08-20T06:38:05.810Z,18.82
2022-08-20T06:40:34.038Z,19.06
2022-08-20T06:43:00.942Z,19.51
2022-08-20T06:45:30.098Z,20.29
2022-08-20T06:47:59.216Z,21.05
2022-08-20T06:50:30.404Z,21.86
2022-08-20T06:52:57.467Z,23.00
2022-08-20T06:55:23.923Z,23.67
2022-08-20T06:57:58.979Z,24.10
2022-08-20T07:00:26.299Z,24.65
2022-08-20T07:02:52.717Z,24.61
2022-08-20T07:05:19.251Z,24.66
2022-08-20T07:07:49.398Z,24.92
2022-08-20T07:10:17.059Z,24.84
2022-08-20T07:12:44.558Z,25.17
2022-08-20T07:15:12.256Z,25.15
2022-08-20T07:17:39.177Z,25.55
2022-08-20T07:20:11.161Z,25.96
2022-08-20T07:22:37.631Z,25.82
2022-08-20T07:25:06.335Z,26.05
2022-08-20T07:27:33.250Z,26.20
2022-08-20T07:30:55.903Z,26.49
2022-08-20T07:33:21.584Z,26.33
2022-08-20T07:35:48.823Z,26.33
2022-08-20T07:38:19.548Z,26.05
2022-08-20T07:40:48.634Z,26.19
2022-08-20T07:43:16.233Z,26.56
2022-08-20T07:45:43.077Z,26.68
2022-08-20T07:48:31.127Z,26.85
2022-08-20T07:51:01.171Z,26.87
2022-08-20T07:53:31.135Z,26.85
2022-08-20T07:56:01.190Z,26.88
2022-08-20T07:58:33.215Z,27.45
2022-08-20T08:00:59.724Z,27.87
2022-08-20T08:03:39.770Z,27.48
2022-08-20T08:06:14.498Z,27.24
2022-08-20T08:08:43.618Z,27.05
2022-08-20T08:11:11.354Z,26.94
2022-08-20T08:13:40.430Z,26.98
2022-08-20T08:16:09.252Z,27.11
2022-08-20T08:18:56.819Z,27.32
2022-08-20T08:21:23.836Z,26.93
2022-08-20T08:23:50.747Z,27.32
2022-08-20T08:26:19.091Z,26.83
2022-08-20T08:28:46.305Z,26.90
2022-08-20T08:31:15.063Z,27.38
2022-08-20T08:33:42.541Z,27.61
2022-08-20T08:36:11.923Z,27.87
2022-08-20T08:38:39.992Z,27.78
2022-08-20T08:41:34.697Z,28.02
2022-08-20T08:44:12.816Z,26.83
2022-08-20T08:46:43.371Z,26.99
2022-08-20T08:49:17.984Z,27.50
2022-08-20T08:51:56.057Z,27.12
2022-08-20T08:54:25.298Z,27.55
2022-08-20T08:56:52.939Z,28.33
2022-08-20T08:59:22.355Z,28.71
2022-08-20T09:01:57.691Z,28.53
2022-08-20T09:04:39.899Z,28.49
2022-08-20T09:07:13.379Z,28.43
2022-08-20T09:09:43.476Z,28.63
2022-08-20T09:12:19.320Z,28.48
2022-08-20T09:14:48.200Z,28.29
2022-08-20T09:17:16.079Z,28.67
2022-08-20T09:19:42.603Z,28.54
2022-08-20T09:22:14.902Z,28.44
2022-08-20T09:24:42.379Z,28.92
2022-08-20T09:27:09.476Z,29.44
2022-08-20T09:29:36.543Z,29.19
2022-08-20T09:32:10.510Z,28.98
2022-08-20T09:34:40.102Z,29.09
2022-08-20T09:37:07.050Z,29.89
2022-08-20T09:39:33.667Z,30.01
2022-08-20T09:42:12.315Z,29.01
2022-08-20T09:44:39.105Z,28.93
2022-08-20T09:47:05.772Z,28.86
2022-08-20T09:49:32.450Z,28.74
2022-08-20T09:52:01.217Z,29.27
2022-08-20T09:54:30.097Z,29.93
2022-08-20T09:57:03.361Z,29.02
2022-08-20T09:59:31.308Z,29.39
2022-08-20T10:01:57.782Z,29.54
2022-08-20T10:04:24.171Z,28.98
2022-08-20T10:06:51.809Z,28.75
2022-08-20T10:09:18.331Z,30.01
2022-08-20T10:11:45.416Z,31.09
2022-08-20T10:14:11.809Z,30.91
2022-08-20T10:16:38.170Z,31.14
2022-08-20T10:19:05.007Z,31.35
2022-08-20T10:21:36.728Z,30.25
2022-08-20T10:24:05.201Z,30.77
2022-08-20T10:26:31.573Z,30.89
2022-08-20T10:28:57.953Z,31.21
2022-08-20T10:31:24.336Z,31.40
2022-08-20T10:33:50.735Z,31.29
2022-08-20T10:36:17.958Z,31.97
2022-08-20T10:38:45.022Z,32.31
2022-08-20T10:41:11.583Z,31.85
2022-08-20T10:43:37.990Z,31.71
2022-08-20T10:46:04.335Z,32.09
2022-08-20T10:48:30.750Z,32.53
2022-08-20T10:50:57.102Z,32.17
2022-08-20T10:53:23.773Z,32.36
2022-08-20T10:55:50.202Z,31.88
2022-08-20T10:58:16.560Z,31.75
2022-08-20T11:00:42.934Z,32.02
2022-08-20T11:03:09.296Z,33.06
2022-08-20T11:05:35.637Z,31.84
2022-08-20T11:08:03.839Z,30.44
2022-08-20T11:10:33.907Z,30.90
2022-08-20T11:13:02.043Z,30.92
2022-08-20T11:15:28.645Z,30.31
2022-08-20T11:17:55.467Z,28.20
2022-08-20T11:20:26.040Z,28.35
2022-08-20T11:22:53.823Z,26.96
2022-08-20T11:25:21.063Z,25.86
2022-08-20T11:27:49.648Z,25.67
2022-08-20T11:30:23.319Z,25.06
2022-08-20T11:32:49.843Z,24.90
2022-08-20T11:35:41.626Z,24.71
2022-08-20T11:38:04.441Z,24.90
2022-08-20T11:40:31.537Z,26.43
2022-08-20T11:43:15.477Z,30.19
2022-08-20T11:45:45.610Z,32.29
2022-08-20T11:48:12.003Z,32.37
2022-08-20T11:50:38.475Z,29.91
2022-08-20T11:53:04.855Z,28.21
2022-08-20T11:55:31.455Z,27.43
2022-08-20T11:58:00.128Z,26.50
2022-08-20T12:00:32.262Z,25.84
2022-08-20T12:03:00.104Z,25.20
2022-08-20T12:05:27.363Z,24.59
2022-08-20T12:07:53.852Z,24.29
2022-08-20T12:10:20.308Z,24.35
2022-08-20T12:12:46.697Z,26.42
2022-08-20T12:15:13.075Z,26.51
2022-08-20T12:17:39.777Z,25.86
2022-08-20T12:20:09.943Z,25.44
2022-08-20T12:22:36.589Z,25.19
2022-08-20T12:25:04.472Z,25.13
2022-08-20T12:27:33.190Z,26.72
2022-08-20T12:30:03.335Z,30.38
2022-08-20T12:32:31.418Z,28.91
2022-08-20T12:34:58.269Z,26.94
2022-08-20T12:37:27.383Z,25.41
2022-08-20T12:39:56.311Z,24.97
2022-08-20T12:42:23.182Z,27.89
2022-08-20T12:44:49.666Z,30.65
2022-08-20T12:47:22.368Z,31.36
2022-08-20T12:50:01.060Z,29.70
2022-08-20T12:52:29.227Z,28.26
2022-08-20T12:54:56.523Z,27.31
2022-08-20T12:57:29.847Z,26.91
2022-08-20T12:59:57.722Z,26.57
2022-08-20T13:02:25.654Z,26.27
2022-08-20T13:04:52.006Z,25.67
2022-08-20T13:07:18.507Z,25.55
2022-08-20T13:09:44.977Z,25.46
2022-08-20T13:12:14.138Z,25.47
2022-08-20T13:14:41.306Z,25.37
2022-08-20T13:17:07.982Z,25.09
2022-08-20T13:19:36.135Z,24.90
2022-08-20T13:22:02.824Z,25.01
2022-08-20T13:24:29.258Z,24.93
2022-08-20T13:27:13.597Z,24.97
2022-08-20T13:29:49.472Z,24.68
2022-08-20T13:32:16.799Z,24.68
2022-08-20T13:34:45.209Z,24.61
2022-08-20T13:37:13.667Z,24.51
2022-08-20T13:39:41.037Z,24.37
2022-08-20T13:42:08.231Z,24.29
2022-08-20T13:44:34.752Z,24.20
2022-08-20T13:47:12.302Z,24.11
2022-08-20T13:49:38.657Z,24.07
2022-08-20T13:52:05.053Z,24.29
2022-08-20T13:54:32.082Z,24.48
2022-08-20T13:57:12.995Z,24.46
2022-08-20T13:59:42.407Z,24.55
2022-08-20T14:02:10.191Z,24.61
2022-08-20T14:04:36.794Z,24.70
2022-08-20T14:07:16.691Z,24.57
2022-08-20T14:09:46.783Z,24.62
2022-08-20T14:12:14.012Z,24.72
2022-08-20T14:14:41.627Z,24.92
2022-08-20T14:17:23.007Z,25.08
2022-08-20T14:19:51.372Z,25.20
2022-08-20T14:22:18.366Z,25.14
2022-08-20T14:24:46.783Z,25.18
2022-08-20T14:27:14.852Z,25.34
2022-08-20T14:29:43.269Z,25.35
2022-08-20T14:32:10.628Z,24.91
2022-08-20T14:34:37.465Z,24.98
2022-08-20T14:37:20.464Z,24.92
2022-08-20T14:39:50.936Z,24.40
2022-08-20T14:42:17.518Z,23.98
2022-08-20T14:44:44.606Z,23.86
2022-08-20T14:47:14.159Z,23.88
2022-08-20T14:49:41.120Z,23.74
2022-08-20T14:52:08.221Z,23.83
2022-08-20T14:54:36.065Z,24.03
2022-08-20T14:57:03.211Z,24.26
2022-08-20T14:59:29.755Z,24.46
2022-08-20T15:01:56.172Z,24.35
2022-08-20T15:04:23.680Z,24.07
2022-08-20T15:06:52.762Z,23.70
2022-08-20T15:09:21.059Z,23.42
2022-08-20T15:11:47.415Z,23.33
2022-08-20T15:14:13.776Z,23.50
2022-08-20T15:16:44.852Z,23.71
2022-08-20T15:19:11.221Z,23.58
2022-08-20T15:21:45.436Z,23.55
2022-08-20T15:24:19.136Z,23.53
2022-08-20T15:26:46.179Z,23.61
2022-08-20T15:29:12.878Z,23.51
2022-08-20T15:31:49.007Z,23.39
2022-08-20T15:34:17.915Z,23.32
2022-08-20T15:36:44.910Z,23.23
2022-08-20T15:39:11.297Z,23.14
2022-08-20T15:41:37.634Z,23.09
2022-08-20T15:44:04.014Z,22.96
2022-08-20T15:46:33.561Z,22.51
2022-08-20T15:49:02.454Z,22.24
2022-08-20T15:51:42.425Z,22.13
2022-08-20T15:54:15.041Z,22.24
2022-08-20T15:57:01.280Z,22.30
2022-08-20T15:59:39.651Z,22.12
2022-08-20T16:02:27.963Z,21.91
2022-08-20T16:05:14.400Z,21.67
2022-08-20T16:08:06.642Z,21.38
2022-08-20T16:10:52.122Z,21.30
2022-08-20T16:13:38.935Z,21.44
2022-08-20T16:16:11.139Z,21.45
2022-08-20T16:18:39.984Z,21.41
2022-08-20T16:21:11.552Z,21.23
2022-08-20T16:23:40.704Z,21.16
2022-08-20T16:26:44.758Z,21.26
2022-08-20T16:29:27.548Z,21.33
2022-08-20T16:32:05.683Z,21.28
2022-08-20T16:34:38.457Z,21.22
2022-08-20T16:37:17.542Z,21.30
2022-08-20T16:40:06.978Z,21.30
2022-08-20T16:42:38.479Z,21.25
2022-08-20T16:45:11.613Z,21.18
2022-08-20T16:47:40.677Z,21.26
2022-08-20T16:50:16.015Z,21.40
2022-08-20T16:52:44.776Z,21.59
2022-08-20T16:55:14.967Z,21.78
2022-08-20T16:57:41.415Z,21.86
2022-08-20T17:00:19.660Z,21.83
2022-08-20T17:02:58.596Z,21.74
2022-08-20T17:05:28.739Z,21.77
2022-08-20T17:08:01.214Z,21.78
2022-08-20T17:10:31.058Z,21.68
2022-08-20T17:13:10.860Z,21.47
2022-08-20T17:15:37.203Z,21.38
2022-08-20T17:18:23.237Z,21.20
2022-08-20T17:20:50.682Z,21.07
2022-08-20T17:23:19.621Z,21.07
2022-08-20T17:25:56.913Z,21.10
2022-08-20T17:28:23.328Z,21.03
2022-08-20T17:30:50.023Z,20.97
2022-08-20T17:33:36.241Z,20.92
2022-08-20T17:36:18.279Z,20.90
2022-08-20T17:38:50.854Z,20.88
2022-08-20T17:41:26.678Z,20.79
2022-08-20T17:44:02.363Z,20.67
2022-08-20T17:46:42.330Z,20.62
2022-08-20T17:49:11.817Z,20.45
2022-08-20T17:51:45.802Z,20.44
2022-08-20T17:54:26.999Z,20.37
2022-08-20T17:56:59.125Z,20.31
2022-08-20T18:00:01.071Z,20.16
2022-08-20T18:02:18.612Z,19.95
2022-08-20T18:04:47.024Z,19.80
2022-08-20T18:07:24.560Z,19.73
2022-08-20T18:09:59.756Z,19.71
2022-08-20T18:12:39.906Z,19.62
2022-08-20T18:15:12.234Z,19.63
2022-08-20T18:18:02.979Z,19.46
2022-08-20T18:20:39.624Z,19.32
2022-08-20T18:23:10.534Z,19.15
2022-08-20T18:25:42.142Z,19.00
2022-08-20T18:28:24.991Z,18.88
2022-08-20T18:30:58.471Z,18.74
2022-08-20T18:33:35.368Z,18.68
2022-08-20T18:36:23.571Z,18.57
2022-08-20T18:39:09.643Z,18.48
2022-08-20T18:41:38.444Z,18.37
2022-08-20T18:44:14.057Z,18.28
2022-08-20T18:47:01.924Z,18.17
2022-08-20T18:49:31.368Z,18.06
2022-08-20T18:52:07.859Z,17.94
2022-08-20T18:54:35.168Z,17.74
2022-08-20T18:57:07.875Z,17.64
2022-08-20T18:59:45.864Z,17.48
2022-08-20T19:02:29.855Z,17.35
2022-08-20T19:05:02.722Z,17.23
2022-08-20T19:07:45.807Z,17.11
2022-08-20T19:10:45.846Z,16.95
2022-08-20T19:13:19.343Z,16.81
2022-08-20T19:15:49.915Z,16.71
2022-08-20T19:18:36.284Z,16.61
2022-08-20T19:21:04.057Z,16.53
2022-08-20T19:23:37.086Z,16.47
2022-08-20T19:26:24.958Z,16.35
2022-08-20T19:29:08.522Z,16.24
2022-08-20T19:31:35.547Z,16.19
2022-08-20T19:34:18.069Z,16.14
2022-08-20T19:36:54.631Z,16.04
2022-08-20T19:39:25.692Z,16.00
2022-08-20T19:42:12.424Z,15.91
2022-08-20T19:44:45.574Z,15.84
2022-08-20T19:47:20.052Z,15.76
2022-08-20T19:50:05.356Z,15.65
2022-08-20T19:52:45.352Z,15.57
2022-08-20T19:55:30.643Z,15.46
2022-08-20T19:58:01.009Z,15.36
2022-08-20T20:00:34.162Z,15.30
2022-08-20T20:03:14.102Z,15.21
2022-08-20T20:05:53.563Z,15.16
2022-08-20T20:08:22.254Z,15.06
2022-08-20T20:10:56.234Z,15.00
2022-08-20T20:13:25.895Z,14.90
2022-08-20T20:15:59.532Z,14.83
2022-08-20T20:18:29.539Z,14.77
2022-08-20T20:21:13.833Z,14.67
2022-08-20T20:23:46.527Z,14.62
2022-08-20T20:26:17.675Z,14.57
2022-08-20T20:28:48.023Z,14.52
2022-08-20T20:31:25.504Z,14.49
2022-08-20T20:33:56.224Z,14.45
2022-08-20T20:36:49.022Z,14.35
2022-08-20T20:39:31.222Z,14.32
2022-08-20T20:42:00.314Z,14.27
2022-08-20T20:44:37.502Z,14.21
2022-08-20T20:47:08.128Z,14.18
2022-08-20T20:49:49.555Z,14.11
2022-08-20T20:52:23.296Z,14.07
2022-08-20T20:54:50.608Z,14.01
2022-08-20T20:57:25.533Z,13.94
2022-08-20T21:00:11.198Z,13.92
2022-08-20T21:02:37.678Z,13.87
2022-08-20T21:05:04.473Z,13.82
2022-08-20T21:07:30.952Z,13.78
2022-08-20T21:09:57.897Z,13.75
2022-08-20T21:12:24.917Z,13.75
2022-08-20T21:14:51.628Z,13.72
2022-08-20T21:17:22.542Z,13.66
2022-08-20T21:19:51.050Z,13.63
2022-08-20T21:22:19.433Z,13.59
2022-08-20T21:24:48.350Z,13.53
2022-08-20T21:27:14.817Z,13.49
2022-08-20T21:29:41.482Z,13.46
2022-08-20T21:32:08.222Z,13.45
2022-08-20T21:34:39.304Z,13.42
2022-08-20T21:37:05.695Z,13.42
2022-08-20T21:39:32.074Z,13.42
2022-08-20T21:42:01.679Z,13.40
2022-08-20T21:44:31.591Z,13.32
2022-08-20T21:46:59.660Z,13.26
2022-08-20T21:49:28.348Z,13.21
2022-08-20T21:51:55.416Z,13.18
2022-08-20T21:54:22.447Z,13.17
2022-08-20T21:57:02.710Z,13.16
2022-08-20T21:59:29.840Z,13.13
2022-08-20T22:01:56.755Z,13.11
2022-08-20T22:04:23.151Z,13.10
2022-08-20T22:06:50.064Z,13.05
2022-08-20T22:09:16.527Z,12.98
2022-08-20T22:11:42.926Z,12.93
2022-08-20T22:14:11.018Z,12.92
2022-08-20T22:16:37.862Z,12.92
2022-08-20T22:19:10.726Z,12.88
2022-08-20T22:21:40.500Z,12.84
2022-08-20T22:24:08.555Z,12.79
2022-08-20T22:26:36.717Z,12.74
2022-08-20T22:29:04.406Z,12.72
2022-08-20T22:31:33.626Z,12.69
2022-08-20T22:34:00.944Z,12.66
2022-08-20T22:36:28.006Z,12.61
2022-08-20T22:38:55.110Z,12.58
2022-08-20T22:41:22.702Z,12.53
2022-08-20T22:43:55.861Z,12.50
2022-08-20T22:46:26.855Z,12.47
2022-08-20T22:48:53.756Z,12.47
2022-08-20T22:51:28.006Z,12.45
2022-08-20T22:53:54.651Z,12.38
2022-08-20T22:56:21.822Z,12.33
2022-08-20T22:58:50.102Z,12.32
2022-08-20T23:01:17.397Z,12.33
2022-08-20T23:03:43.938Z,12.33
2022-08-20T23:06:10.686Z,12.28
2022-08-20T23:08:38.035Z,12.24
2022-08-20T23:11:04.634Z,12.23
2022-08-20T23:13:31.015Z,12.21
2022-08-20T23:15:57.533Z,12.23
2022-08-20T23:18:23.987Z,12.20
2022-08-20T23:20:56.256Z,12.16
2022-08-20T23:23:24.466Z,12.14
2022-08-20T23:25:52.162Z,12.12
2022-08-20T23:28:20.843Z,12.13
2022-08-20T23:30:47.948Z,12.14
2022-08-20T23:33:15.648Z,12.10
2022-08-20T23:35:42.571Z,12.09
2022-08-20T23:38:09.353Z,12.09
2022-08-20T23:40:36.249Z,12.11
2022-08-20T23:43:03.639Z,12.08
2022-08-20T23:45:31.209Z,12.03
2022-08-20T23:47:57.752Z,12.00
2022-08-20T23:50:27.351Z,12.03
2022-08-20T23:52:54.228Z,12.04
2022-08-20T23:55:22.667Z,11.99
2022-08-20T23:57:50.182Z,11.95
